Time;durP1;ratioP1;P1;durP2;ratioP2;P2;SDS_P1;SDS_P2;PMS_P1;PMS_P2;Temp;Humidity;BMP_temperature;BMP_pressure;BME280_temperature;BME280_humidity;BME280_pressure;Samples;Min_cycle;Max_cycle;Signal;HPM_P1;HPM_P2
2021/03/10 00:01:00;;;;;;;8.13;5.22;;;;;;;;;;5071238;28;20258;-79
2021/03/10 00:03:25;;;;;;;7.47;4.90;;;;;;;;;;5054348;28;20049;-79
2021/03/10 00:05:52;;;;;;;10.77;5.87;;;;;;;;;;5069942;28;20376;-79
2021/03/10 00:08:17;;;;;;;8.50;5.53;;;;;;;;;;5022237;28;20259;-80
2021/03/10 00:10:43;;;;;;;8.70;5.35;;;;;;;;;;5011440;28;20104;-79
2021/03/10 00:13:08;;;;;;;7.78;5.40;;;;;;;;;;5021306;28;20021;-79
2021/03/10 00:15:34;;;;;;;8.38;5.28;;;;;;;;;;5035110;28;20040;-79
2021/03/10 00:17:59;;;;;;;8.98;5.57;;;;;;;;;;5029252;28;20083;-79
2021/03/10 00:20:24;;;;;;;9.67;5.53;;;;;;;;;;5029984;28;20049;-80
2021/03/10 00:22:50;;;;;;;9.20;5.72;;;;;;;;;;5028753;28;20641;-79
2021/03/10 00:25:16;;;;;;;9.77;5.83;;;;;;;;;;5031519;28;20032;-79
2021/03/10 00:27:41;;;;;;;7.80;5.53;;;;;;;;;;5033336;28;20295;-80
2021/03/10 00:30:07;;;;;;;8.32;5.70;;;;;;;;;;5032319;28;20026;-80
2021/03/10 00:32:32;;;;;;;8.50;5.82;;;;;;;;;;5033322;28;20025;-79
2021/03/10 00:34:59;;;;;;;9.20;5.78;;;;;;;;;;5032133;28;20096;-79
2021/03/10 00:37:24;;;;;;;8.20;5.80;;;;;;;;;;5032280;28;20429;-79
2021/03/10 00:39:50;;;;;;;8.73;5.37;;;;;;;;;;5033063;28;20109;-79
2021/03/10 00:42:15;;;;;;;8.57;5.57;;;;;;;;;;5028785;28;20619;-79
2021/03/10 00:44:40;;;;;;;9.15;6.13;;;;;;;;;;5013925;28;20061;-79
2021/03/10 00:47:06;;;;;;;8.83;5.37;;;;;;;;;;5013559;28;20025;-79
2021/03/10 00:49:31;;;;;;;9.50;6.10;;;;;;;;;;5013979;28;20264;-79
2021/03/10 00:51:56;;;;;;;8.02;5.65;;;;;;;;;;5011979;28;20109;-79
2021/03/10 00:54:22;;;;;;;8.27;5.70;;;;;;;;;;5013345;28;20495;-79
2021/03/10 00:56:48;;;;;;;8.40;5.25;;;;;;;;;;4996341;28;20277;-79
2021/03/10 00:59:13;;;;;;;8.80;5.70;;;;;;;;;;5014249;28;20499;-79
2021/03/10 01:01:38;;;;;;;8.00;5.67;;;;;;;;;;5011630;28;20513;-79
2021/03/10 01:04:03;;;;;;;8.55;5.93;;;;;;;;;;5011888;28;20713;-80
2021/03/10 01:06:29;;;;;;;9.07;5.68;;;;;;;;;;5020071;28;20021;-80
2021/03/10 01:08:54;;;;;;;8.27;6.05;;;;;;;;;;5031407;28;20044;-79
2021/03/10 01:11:20;;;;;;;8.75;5.68;;;;;;;;;;5028592;28;20026;-80
2021/03/10 01:13:45;;;;;;;9.82;5.88;;;;;;;;;;5017981;28;20155;-79
2021/03/10 01:16:10;;;;;;;10.43;6.18;;;;;;;;;;5032847;28;20029;-81
2021/03/10 01:18:36;;;;;;;8.25;5.45;;;;;;;;;;5033236;28;20021;-80
2021/03/10 01:21:01;;;;;;;9.00;5.60;;;;;;;;;;5032949;28;20032;-79
2021/03/10 01:23:26;;;;;;;7.70;5.57;;;;;;;;;;5036709;28;20538;-79
2021/03/10 01:25:52;;;;;;;8.15;5.80;;;;;;;;;;5031123;28;20171;-79
2021/03/10 01:28:17;;;;;;;8.52;6.03;;;;;;;;;;5031290;28;20028;-80
2021/03/10 01:30:42;;;;;;;8.90;5.72;;;;;;;;;;5031810;28;20023;-78
2021/03/10 01:33:08;;;;;;;8.15;5.88;;;;;;;;;;5032582;28;20064;-79
2021/03/10 01:35:33;;;;;;;8.00;5.45;;;;;;;;;;5032035;28;20555;-79
2021/03/10 01:37:58;;;;;;;7.03;5.07;;;;;;;;;;5026792;28;20026;-78
2021/03/10 01:40:23;;;;;;;9.03;5.70;;;;;;;;;;5012419;28;20859;-79
2021/03/10 01:42:49;;;;;;;8.43;5.85;;;;;;;;;;5011295;28;21059;-79
2021/03/10 01:45:14;;;;;;;7.72;5.60;;;;;;;;;;5011469;28;20100;-79
2021/03/10 01:47:40;;;;;;;8.10;5.35;;;;;;;;;;5011883;28;20026;-79
2021/03/10 01:50:06;;;;;;;8.43;6.57;;;;;;;;;;5010560;28;20506;-79
2021/03/10 01:52:31;;;;;;;9.32;6.18;;;;;;;;;;5011895;28;20022;-79
2021/03/10 01:54:56;;;;;;;6.93;5.43;;;;;;;;;;5011939;28;20022;-79
2021/03/10 01:57:22;;;;;;;8.35;5.82;;;;;;;;;;5030513;28;20268;-79
2021/03/10 01:59:47;;;;;;;8.70;5.72;;;;;;;;;;5031953;28;20029;-79
2021/03/10 02:02:12;;;;;;;8.27;5.83;;;;;;;;;;5031473;28;20097;-79
2021/03/10 02:04:38;;;;;;;8.95;5.82;;;;;;;;;;5030217;28;20303;-79
2021/03/10 02:07:16;;;;;;;7.38;5.55;;;;;;;;;;5035505;28;20033;-79
2021/03/10 02:09:41;;;;;;;6.97;5.53;;;;;;;;;;5039811;28;20022;-78
2021/03/10 02:12:06;;;;;;;8.20;5.70;;;;;;;;;;5040380;28;20036;-79
2021/03/10 02:14:39;;;;;;;8.05;5.60;;;;;;;;;;5047314;28;20025;-80
2021/03/10 02:17:06;;;;;;;7.80;5.40;;;;;;;;;;5041712;28;20035;-80
2021/03/10 02:19:50;;;;;;;7.45;5.40;;;;;;;;;;5029944;28;20164;-79
2021/03/10 02:22:16;;;;;;;9.13;5.85;;;;;;;;;;5031929;28;20049;-79
2021/03/10 02:25:00;;;;;;;8.60;5.70;;;;;;;;;;5027703;28;20471;-79
2021/03/10 02:27:32;;;;;;;8.13;5.57;;;;;;;;;;5039391;28;20052;-80
2021/03/10 02:30:05;;;;;;;7.70;5.43;;;;;;;;;;5029803;28;20032;-79
2021/03/10 02:32:30;;;;;;;8.52;5.28;;;;;;;;;;5026398;28;20446;-79
2021/03/10 02:34:55;;;;;;;7.30;5.32;;;;;;;;;;5014291;28;20087;-79
2021/03/10 02:37:21;;;;;;;8.23;5.03;;;;;;;;;;5026834;28;20037;-79
2021/03/10 02:39:46;;;;;;;8.30;6.07;;;;;;;;;;5029837;28;20036;-79
2021/03/10 02:42:11;;;;;;;8.23;5.80;;;;;;;;;;5031306;28;20800;-80
2021/03/10 02:44:36;;;;;;;9.30;6.53;;;;;;;;;;5030011;28;20482;-79
2021/03/10 02:47:02;;;;;;;8.53;5.87;;;;;;;;;;5030090;28;20288;-79
2021/03/10 02:49:27;;;;;;;7.75;5.35;;;;;;;;;;5030593;28;20268;-79
2021/03/10 02:51:52;;;;;;;8.30;5.50;;;;;;;;;;5029560;28;20022;-79
2021/03/10 02:54:17;;;;;;;7.93;5.80;;;;;;;;;;5029610;28;20267;-79
2021/03/10 02:56:43;;;;;;;8.65;5.82;;;;;;;;;;5029291;28;20041;-80
2021/03/10 02:59:08;;;;;;;7.73;5.37;;;;;;;;;;5032089;28;20057;-79
2021/03/10 03:01:34;;;;;;;7.97;5.65;;;;;;;;;;5030868;28;20268;-79
2021/03/10 03:03:59;;;;;;;7.70;6.25;;;;;;;;;;5029649;28;20053;-79
2021/03/10 03:06:24;;;;;;;9.57;5.77;;;;;;;;;;5030895;28;20047;-79
2021/03/10 03:08:49;;;;;;;8.40;5.63;;;;;;;;;;5030547;28;20284;-79
2021/03/10 03:11:14;;;;;;;7.63;5.37;;;;;;;;;;5027579;28;20264;-79
2021/03/10 03:13:40;;;;;;;8.15;5.57;;;;;;;;;;5039796;28;20343;-80
2021/03/10 03:16:05;;;;;;;9.10;6.00;;;;;;;;;;5050953;28;20018;-79
2021/03/10 03:18:30;;;;;;;8.55;5.93;;;;;;;;;;5051503;28;20298;-79
2021/03/10 03:20:58;;;;;;;7.03;5.22;;;;;;;;;;5041769;28;20029;-79
2021/03/10 03:23:24;;;;;;;8.95;6.15;;;;;;;;;;5051011;28;20021;-80
2021/03/10 03:25:49;;;;;;;9.02;5.72;;;;;;;;;;5053540;28;20029;-79
2021/03/10 03:28:15;;;;;;;8.38;5.95;;;;;;;;;;5053167;28;20056;-79
2021/03/10 03:30:40;;;;;;;8.50;5.85;;;;;;;;;;5049434;28;20026;-80
2021/03/10 03:33:07;;;;;;;8.05;5.45;;;;;;;;;;5066100;28;20021;-79
2021/03/10 03:35:32;;;;;;;7.90;6.18;;;;;;;;;;5051232;28;20037;-79
2021/03/10 03:37:57;;;;;;;7.40;5.45;;;;;;;;;;5067192;28;20040;-80
2021/03/10 03:40:23;;;;;;;6.55;5.20;;;;;;;;;;5066932;28;20112;-79
2021/03/10 03:42:48;;;;;;;7.32;5.45;;;;;;;;;;5068175;28;20022;-80
2021/03/10 03:45:16;;;;;;;7.18;5.32;;;;;;;;;;5067585;28;20093;-79
2021/03/10 03:47:42;;;;;;;8.15;5.60;;;;;;;;;;5066754;28;20022;-80
2021/03/10 03:50:10;;;;;;;8.05;5.78;;;;;;;;;;5051311;28;20025;-80
2021/03/10 03:52:39;;;;;;;6.97;5.82;;;;;;;;;;5057085;28;20044;-80
2021/03/10 03:55:04;;;;;;;7.65;5.82;;;;;;;;;;5032503;28;20029;-79
2021/03/10 03:57:29;;;;;;;7.88;5.60;;;;;;;;;;5047543;28;20557;-79
2021/03/10 03:59:54;;;;;;;7.47;5.70;;;;;;;;;;5046724;28;20036;-81
2021/03/10 04:02:20;;;;;;;8.53;5.73;;;;;;;;;;5046218;28;20263;-80
2021/03/10 04:04:45;;;;;;;8.15;6.28;;;;;;;;;;5030652;28;20288;-80
2021/03/10 04:07:10;;;;;;;9.37;6.37;;;;;;;;;;5030030;28;20417;-80
2021/03/10 04:09:35;;;;;;;8.05;5.50;;;;;;;;;;5028945;28;20287;-81
2021/03/10 04:12:02;;;;;;;7.27;5.20;;;;;;;;;;5025499;28;20026;-80
2021/03/10 04:14:27;;;;;;;7.18;5.68;;;;;;;;;;5019840;28;20310;-80
2021/03/10 04:16:52;;;;;;;7.55;5.35;;;;;;;;;;5029820;28;20025;-79
2021/03/10 04:19:18;;;;;;;8.80;5.57;;;;;;;;;;5028598;28;20026;-79
2021/03/10 04:21:43;;;;;;;8.43;5.67;;;;;;;;;;5029937;28;20263;-79
2021/03/10 04:24:08;;;;;;;7.07;5.10;;;;;;;;;;5029684;28;20902;-79
2021/03/10 04:26:34;;;;;;;7.90;5.25;;;;;;;;;;5029276;28;20585;-79
2021/03/10 04:28:59;;;;;;;7.87;6.13;;;;;;;;;;5027930;28;20025;-79
2021/03/10 04:31:24;;;;;;;6.95;4.90;;;;;;;;;;5029360;28;20303;-78
2021/03/10 04:33:49;;;;;;;8.00;5.65;;;;;;;;;;5027676;28;20013;-81
2021/03/10 04:36:15;;;;;;;7.53;5.83;;;;;;;;;;5027801;28;20103;-81
2021/03/10 04:38:40;;;;;;;7.50;5.37;;;;;;;;;;5024683;28;20394;-77
2021/03/10 04:41:05;;;;;;;7.32;5.45;;;;;;;;;;5028731;28;20311;-79
2021/03/10 04:43:30;;;;;;;7.40;5.20;;;;;;;;;;5023199;28;20038;-79
2021/03/10 04:45:56;;;;;;;6.83;5.20;;;;;;;;;;5025494;28;20079;-79
2021/03/10 04:48:21;;;;;;;9.57;5.28;;;;;;;;;;5024948;28;20280;-79
2021/03/10 04:50:46;;;;;;;7.20;5.30;;;;;;;;;;5026539;28;20099;-80
2021/03/10 04:53:12;;;;;;;7.03;5.27;;;;;;;;;;5022669;28;20014;-81
2021/03/10 04:55:37;;;;;;;6.93;5.30;;;;;;;;;;5026561;28;20280;-81
2021/03/10 04:58:03;;;;;;;7.47;5.87;;;;;;;;;;5025427;28;20026;-79
2021/03/10 05:00:28;;;;;;;7.60;5.43;;;;;;;;;;5027776;28;20791;-83
2021/03/10 05:02:53;;;;;;;6.80;5.22;;;;;;;;;;5022691;28;20050;-80
2021/03/10 05:05:18;;;;;;;8.87;6.10;;;;;;;;;;5025281;28;20029;-84
2021/03/10 05:07:44;;;;;;;7.33;5.87;;;;;;;;;;5027229;28;20337;-86
2021/03/10 05:10:10;;;;;;;8.43;5.30;;;;;;;;;;5035778;28;20641;-88
2021/03/10 05:12:35;;;;;;;7.20;5.30;;;;;;;;;;5033905;28;20021;-79
2021/03/10 05:15:00;;;;;;;7.37;5.07;;;;;;;;;;5027819;28;20006;-77
2021/03/10 05:17:26;;;;;;;7.32;5.57;;;;;;;;;;5028276;28;20822;-80
2021/03/10 05:19:54;;;;;;;7.70;5.53;;;;;;;;;;5030270;28;20147;-82
2021/03/10 05:22:19;;;;;;;8.02;5.55;;;;;;;;;;5028732;28;20097;-81
2021/03/10 05:24:44;;;;;;;6.43;4.93;;;;;;;;;;5027927;28;20763;-78
2021/03/10 05:27:10;;;;;;;6.27;5.13;;;;;;;;;;5029319;28;20068;-80
2021/03/10 05:29:35;;;;;;;7.20;5.88;;;;;;;;;;5024500;28;20290;-76
2021/03/10 05:32:00;;;;;;;7.75;5.35;;;;;;;;;;5030500;28;20018;-77
2021/03/10 05:34:25;;;;;;;6.90;4.80;;;;;;;;;;5029646;28;20809;-79
2021/03/10 05:36:51;;;;;;;7.03;5.60;;;;;;;;;;5027745;28;20356;-78
2021/03/10 05:39:16;;;;;;;8.15;5.60;;;;;;;;;;5026582;28;20018;-77
2021/03/10 05:41:41;;;;;;;7.38;5.20;;;;;;;;;;5030368;28;20033;-78
2021/03/10 05:44:07;;;;;;;7.97;5.80;;;;;;;;;;5026138;28;20060;-85
2021/03/10 05:46:32;;;;;;;8.02;5.75;;;;;;;;;;5025194;28;20461;-85
2021/03/10 05:48:57;;;;;;;9.30;5.60;;;;;;;;;;5027526;28;20025;-90
2021/03/10 05:51:23;;;;;;;7.70;5.83;;;;;;;;;;5030968;28;20315;-79
2021/03/10 05:53:48;;;;;;;7.50;4.88;;;;;;;;;;5022947;28;20283;-90
2021/03/10 05:56:14;;;;;;;7.93;5.47;;;;;;;;;;5021815;28;20025;-82
2021/03/10 05:58:39;;;;;;;5.97;5.03;;;;;;;;;;5018553;28;20290;-84
2021/03/10 06:01:04;;;;;;;8.48;5.55;;;;;;;;;;5021627;28;20025;-83
2021/03/10 06:03:30;;;;;;;8.00;5.60;;;;;;;;;;5027222;28;20648;-86
2021/03/10 06:06:13;;;;;;;7.53;5.37;;;;;;;;;;5031720;28;20715;-83
2021/03/10 06:08:38;;;;;;;8.05;5.63;;;;;;;;;;5024459;28;20362;-80
2021/03/10 06:11:06;;;;;;;7.43;5.63;;;;;;;;;;5016972;28;20105;-82
2021/03/10 06:13:32;;;;;;;8.07;5.65;;;;;;;;;;5029074;28;20288;-81
2021/03/10 06:15:58;;;;;;;6.05;4.97;;;;;;;;;;5028125;28;20116;-79
2021/03/10 06:18:30;;;;;;;8.82;5.90;;;;;;;;;;5026819;28;20021;-75
2021/03/10 06:21:21;;;;;;;9.73;5.10;;;;;;;;;;5028371;28;20028;-79
2021/03/10 06:23:50;;;;;;;6.47;5.15;;;;;;;;;;5017694;28;20029;-77
2021/03/10 06:26:19;;;;;;;6.65;5.18;;;;;;;;;;5028044;28;20068;-76
2021/03/10 06:28:44;;;;;;;9.07;5.40;;;;;;;;;;5027103;28;20016;-75
2021/03/10 06:31:19;;;;;;;7.40;5.37;;;;;;;;;;5027777;28;20014;-75
2021/03/10 06:33:45;;;;;;;6.18;5.00;;;;;;;;;;5027580;28;20284;-77
2021/03/10 06:36:10;;;;;;;7.70;5.57;;;;;;;;;;5028262;28;20017;-77
2021/03/10 06:38:35;;;;;;;7.28;5.18;;;;;;;;;;5026937;28;20018;-73
2021/03/10 06:41:01;;;;;;;9.07;5.90;;;;;;;;;;5028414;28;20029;-77
2021/03/10 06:43:39;;;;;;;10.90;7.20;;;;;;;;;;5027274;28;20025;-76
2021/03/10 06:46:10;;;;;;;7.65;6.13;;;;;;;;;;5034015;28;20101;-73
2021/03/10 06:48:35;;;;;;;8.07;5.85;;;;;;;;;;5026192;28;20021;-75
2021/03/10 06:51:01;;;;;;;7.97;5.50;;;;;;;;;;5027328;28;20435;-77
2021/03/10 06:53:29;;;;;;;7.67;5.47;;;;;;;;;;5024186;28;20334;-77
2021/03/10 06:55:54;;;;;;;7.15;5.53;;;;;;;;;;5025350;28;20248;-77
2021/03/10 06:58:23;;;;;;;6.57;5.37;;;;;;;;;;5026198;28;20450;-78
2021/03/10 07:00:58;;;;;;;6.95;5.55;;;;;;;;;;5025089;28;20265;-77
2021/03/10 07:03:23;;;;;;;8.27;5.38;;;;;;;;;;5021447;28;20049;-76
2021/03/10 07:05:49;;;;;;;7.93;5.73;;;;;;;;;;5026934;28;20022;-85
2021/03/10 07:08:14;;;;;;;7.90;5.57;;;;;;;;;;5030552;28;20288;-79
2021/03/10 07:10:39;;;;;;;7.90;5.50;;;;;;;;;;5026388;28;20260;-79
2021/03/10 07:13:05;;;;;;;7.73;5.03;;;;;;;;;;5031156;28;20498;-77
2021/03/10 07:15:30;;;;;;;9.33;6.03;;;;;;;;;;5026353;28;20711;-82
2021/03/10 07:17:55;;;;;;;9.98;5.95;;;;;;;;;;5029178;28;20280;-87
2021/03/10 07:20:21;;;;;;;7.87;5.43;;;;;;;;;;5036578;28;20012;-77
2021/03/10 07:22:57;;;;;;;7.88;5.50;;;;;;;;;;5047525;28;20295;-74
2021/03/10 07:25:34;;;;;;;7.28;4.82;;;;;;;;;;5048128;28;20049;-77
2021/03/10 07:28:00;;;;;;;7.78;5.28;;;;;;;;;;5051888;28;20071;-82
2021/03/10 07:30:39;;;;;;;9.40;5.05;;;;;;;;;;5050821;28;20036;-85
2021/03/10 07:33:05;;;;;;;7.40;5.05;;;;;;;;;;5046073;28;20028;-76
2021/03/10 07:35:30;;;;;;;7.93;5.45;;;;;;;;;;5040105;28;20090;-76
2021/03/10 07:37:55;;;;;;;8.83;5.47;;;;;;;;;;5040344;28;20029;-76
2021/03/10 07:40:20;;;;;;;8.47;5.57;;;;;;;;;;5039111;28;20333;-76
2021/03/10 07:42:50;;;;;;;8.50;5.33;;;;;;;;;;5041113;28;20275;-76
2021/03/10 07:45:15;;;;;;;7.60;5.13;;;;;;;;;;5036987;28;20026;-76
2021/03/10 07:47:50;;;;;;;7.30;5.43;;;;;;;;;;5038993;28;20827;-76
2021/03/10 07:50:15;;;;;;;9.82;5.50;;;;;;;;;;5033760;28;20033;-77
2021/03/10 07:52:48;;;;;;;7.93;5.80;;;;;;;;;;5028388;28;20040;-77
2021/03/10 07:55:13;;;;;;;9.57;5.93;;;;;;;;;;5030237;28;20267;-78
2021/03/10 07:57:48;;;;;;;9.25;5.95;;;;;;;;;;5030019;28;20029;-78
2021/03/10 08:00:13;;;;;;;9.00;5.57;;;;;;;;;;5028655;28;20022;-78
2021/03/10 08:02:43;;;;;;;8.45;5.85;;;;;;;;;;5026585;28;20026;-78
2021/03/10 08:05:18;;;;;;;8.20;5.60;;;;;;;;;;5029768;28;20044;-79
2021/03/10 08:07:43;;;;;;;8.18;5.15;;;;;;;;;;5028617;28;20112;-77
2021/03/10 08:10:09;;;;;;;11.32;7.50;;;;;;;;;;5023775;28;20571;-72
2021/03/10 08:12:35;;;;;;;10.40;6.15;;;;;;;;;;5020278;28;20450;-70
2021/03/10 08:15:00;;;;;;;8.23;6.05;;;;;;;;;;5021178;28;20021;-70
2021/03/10 08:17:26;;;;;;;7.93;5.97;;;;;;;;;;5024982;28;20033;-72
2021/03/10 08:19:58;;;;;;;8.25;5.30;;;;;;;;;;5024580;28;20056;-72
2021/03/10 08:22:24;;;;;;;7.45;5.43;;;;;;;;;;5024924;28;20533;-72
2021/03/10 08:24:49;;;;;;;7.75;5.53;;;;;;;;;;5021149;28;20017;-71
2021/03/10 08:27:15;;;;;;;9.23;5.53;;;;;;;;;;5025157;28;20036;-71
2021/03/10 08:29:47;;;;;;;10.50;5.30;;;;;;;;;;5021868;28;20029;-71
2021/03/10 08:32:21;;;;;;;8.60;5.50;;;;;;;;;;5023995;28;20025;-71
2021/03/10 08:34:46;;;;;;;8.70;5.45;;;;;;;;;;5024273;28;20036;-70
2021/03/10 08:37:11;;;;;;;8.15;5.78;;;;;;;;;;5024204;28;20108;-71
2021/03/10 08:39:43;;;;;;;7.00;5.20;;;;;;;;;;5023670;28;20029;-70
2021/03/10 08:42:09;;;;;;;8.05;5.88;;;;;;;;;;5024765;28;20026;-71
2021/03/10 08:44:38;;;;;;;7.70;5.57;;;;;;;;;;5024161;28;20035;-71
2021/03/10 08:47:09;;;;;;;7.03;5.18;;;;;;;;;;5029779;28;20017;-71
2021/03/10 08:49:34;;;;;;;8.23;5.68;;;;;;;;;;5027282;28;20017;-70
2021/03/10 08:52:05;;;;;;;8.07;5.05;;;;;;;;;;5028421;28;20024;-70
2021/03/10 08:54:31;;;;;;;7.70;5.45;;;;;;;;;;5027512;28;20018;-70
2021/03/10 08:56:56;;;;;;;8.63;5.47;;;;;;;;;;5029661;28;20024;-70
2021/03/10 08:59:21;;;;;;;10.70;5.90;;;;;;;;;;5027852;28;20715;-71
2021/03/10 09:01:50;;;;;;;9.25;5.50;;;;;;;;;;5030174;28;20266;-70
2021/03/10 09:04:22;;;;;;;8.57;5.90;;;;;;;;;;5025186;28;20522;-71
2021/03/10 09:06:47;;;;;;;7.78;5.80;;;;;;;;;;5021243;28;20032;-71
2021/03/10 09:09:13;;;;;;;7.13;5.03;;;;;;;;;;5024457;28;20096;-71
2021/03/10 09:11:38;;;;;;;9.27;5.45;;;;;;;;;;5026663;28;20490;-71
2021/03/10 09:14:03;;;;;;;7.80;5.13;;;;;;;;;;5026322;28;20020;-70
2021/03/10 09:16:28;;;;;;;6.55;5.05;;;;;;;;;;5031561;28;20905;-70
2021/03/10 09:18:58;;;;;;;8.52;5.78;;;;;;;;;;5024957;28;20495;-71
2021/03/10 09:21:23;;;;;;;7.43;5.53;;;;;;;;;;5029702;28;20045;-71
2021/03/10 09:23:58;;;;;;;7.93;5.70;;;;;;;;;;5026767;28;20061;-70
2021/03/10 09:26:23;;;;;;;17.30;8.23;;;;;;;;;;5024415;28;20031;-72
2021/03/10 09:28:49;;;;;;;20.20;9.17;;;;;;;;;;5031191;28;20494;-72
2021/03/10 09:31:14;;;;;;;26.37;10.33;;;;;;;;;;5010324;28;20420;-72
2021/03/10 09:33:40;;;;;;;35.80;11.80;;;;;;;;;;5027726;28;20341;-72
2021/03/10 09:36:05;;;;;;;32.75;12.52;;;;;;;;;;5030478;28;20032;-71
2021/03/10 09:38:31;;;;;;;36.47;13.82;;;;;;;;;;5031299;28;20552;-71
2021/03/10 09:41:00;;;;;;;33.80;13.07;;;;;;;;;;5031057;28;20026;-71
2021/03/10 09:43:26;;;;;;;43.08;15.25;;;;;;;;;;5031396;28;20022;-71
2021/03/10 09:45:58;;;;;;;39.22;14.80;;;;;;;;;;5029455;28;20013;-71
2021/03/10 09:48:28;;;;;;;54.33;16.48;;;;;;;;;;5030227;28;20494;-71
2021/03/10 09:51:00;;;;;;;54.95;18.75;;;;;;;;;;5023315;28;20033;-71
2021/03/10 09:53:25;;;;;;;45.45;16.08;;;;;;;;;;5026884;28;20022;-72
2021/03/10 09:55:52;;;;;;;54.25;17.58;;;;;;;;;;5029406;28;20501;-72
2021/03/10 09:58:17;;;;;;;45.08;16.75;;;;;;;;;;5029148;28;20039;-72
2021/03/10 10:00:43;;;;;;;49.63;17.90;;;;;;;;;;5031150;28;20025;-72
2021/03/10 10:03:08;;;;;;;46.88;16.58;;;;;;;;;;5030594;28;20280;-72
2021/03/10 10:05:34;;;;;;;46.60;17.05;;;;;;;;;;5028731;28;20385;-80
2021/03/10 10:08:00;;;;;;;41.05;15.10;;;;;;;;;;5025628;28;20037;-76
2021/03/10 10:10:25;;;;;;;41.72;15.57;;;;;;;;;;5011293;28;20026;-77
2021/03/10 10:12:51;;;;;;;37.58;13.60;;;;;;;;;;5029703;28;20059;-77
2021/03/10 10:15:18;;;;;;;40.67;13.77;;;;;;;;;;5034430;28;20033;-79
2021/03/10 10:17:44;;;;;;;34.13;13.38;;;;;;;;;;5033716;28;20026;-78
2021/03/10 10:20:10;;;;;;;37.85;12.63;;;;;;;;;;5034906;28;20029;-77
2021/03/10 10:22:35;;;;;;;32.92;12.73;;;;;;;;;;5033763;28;20162;-79
2021/03/10 10:25:02;;;;;;;34.42;13.55;;;;;;;;;;5031732;28;20141;-78
2021/03/10 10:27:27;;;;;;;30.75;11.52;;;;;;;;;;5032434;28;20549;-76
2021/03/10 10:29:53;;;;;;;29.70;12.20;;;;;;;;;;5026982;28;20026;-78
2021/03/10 10:32:18;;;;;;;29.50;12.00;;;;;;;;;;5024646;28;20306;-77
2021/03/10 10:34:43;;;;;;;28.92;11.60;;;;;;;;;;5015733;28;20770;-77
2021/03/10 10:37:08;;;;;;;29.47;12.20;;;;;;;;;;5020272;28;20029;-77
2021/03/10 10:39:34;;;;;;;29.47;12.30;;;;;;;;;;5030597;28;20272;-78
2021/03/10 10:41:59;;;;;;;22.42;11.80;;;;;;;;;;5025131;28;20348;-79
2021/03/10 10:44:24;;;;;;;28.83;11.10;;;;;;;;;;5026652;28;20014;-78
2021/03/10 10:46:50;;;;;;;30.53;11.37;;;;;;;;;;5020213;28;20276;-79
2021/03/10 10:49:15;;;;;;;28.35;11.15;;;;;;;;;;5015751;28;20356;-78
2021/03/10 10:51:42;;;;;;;26.57;11.30;;;;;;;;;;5030939;28;20021;-76
2021/03/10 10:54:07;;;;;;;27.35;11.35;;;;;;;;;;5026329;28;20325;-76
2021/03/10 10:56:32;;;;;;;25.85;11.55;;;;;;;;;;5030702;28;20033;-77
2021/03/10 10:58:58;;;;;;;24.30;10.37;;;;;;;;;;5017730;28;20061;-76
2021/03/10 11:01:23;;;;;;;20.52;10.18;;;;;;;;;;5030863;28;20298;-82
2021/03/10 11:03:48;;;;;;;22.42;10.20;;;;;;;;;;5027481;28;20080;-77
2021/03/10 11:06:13;;;;;;;23.73;10.73;;;;;;;;;;5031147;28;20029;-79
2021/03/10 11:08:39;;;;;;;21.70;10.70;;;;;;;;;;5024905;28;20291;-77
2021/03/10 11:11:04;;;;;;;22.33;10.10;;;;;;;;;;5029118;28;20029;-88
2021/03/10 11:13:29;;;;;;;19.67;9.98;;;;;;;;;;5031617;28;20018;-77
2021/03/10 11:15:55;;;;;;;21.30;10.67;;;;;;;;;;5028867;28;21428;-81
2021/03/10 11:18:20;;;;;;;19.60;9.88;;;;;;;;;;5022752;28;20653;-76
2021/03/10 11:20:45;;;;;;;18.70;9.77;;;;;;;;;;5027043;28;20071;-78
2021/03/10 11:23:10;;;;;;;18.90;9.33;;;;;;;;;;5024147;28;20267;-79
2021/03/10 11:25:36;;;;;;;18.27;9.75;;;;;;;;;;5019359;28;20271;-79
2021/03/10 11:28:01;;;;;;;20.27;10.03;;;;;;;;;;5039219;28;20029;-75
2021/03/10 11:30:26;;;;;;;17.97;9.53;;;;;;;;;;5016576;28;20260;-77
2021/03/10 11:32:52;;;;;;;16.52;9.40;;;;;;;;;;5027515;28;20314;-77
2021/03/10 11:35:17;;;;;;;17.60;9.23;;;;;;;;;;5027680;28;20026;-85
2021/03/10 11:37:42;;;;;;;18.58;9.20;;;;;;;;;;5031749;28;20052;-84
2021/03/10 11:40:08;;;;;;;17.45;8.68;;;;;;;;;;5031198;28;20021;-88
2021/03/10 11:42:33;;;;;;;16.38;8.90;;;;;;;;;;5028879;28;20026;-83
2021/03/10 11:44:58;;;;;;;14.70;8.33;;;;;;;;;;5026193;28;20566;-79
2021/03/10 11:47:24;;;;;;;17.05;8.45;;;;;;;;;;5025726;28;20276;-80
2021/03/10 11:49:49;;;;;;;18.02;8.90;;;;;;;;;;5027580;28;20387;-81
2021/03/10 11:52:14;;;;;;;16.00;8.67;;;;;;;;;;5026392;28;20116;-83
2021/03/10 11:54:40;;;;;;;16.23;8.63;;;;;;;;;;5030119;28;20260;-82
2021/03/10 11:57:05;;;;;;;17.17;8.80;;;;;;;;;;5032456;28;20036;-90
2021/03/10 11:59:30;;;;;;;15.55;7.70;;;;;;;;;;5027199;28;20814;-81
2021/03/10 12:01:56;;;;;;;13.85;8.00;;;;;;;;;;5028370;28;20079;-87
2021/03/10 12:04:21;;;;;;;17.73;8.57;;;;;;;;;;5029955;28;20135;-87
2021/03/10 12:06:46;;;;;;;13.90;7.63;;;;;;;;;;5028265;28;20294;-83
2021/03/10 12:09:11;;;;;;;13.85;7.63;;;;;;;;;;5017215;28;20368;-84
2021/03/10 12:11:37;;;;;;;15.90;8.30;;;;;;;;;;5012711;28;20030;-72
2021/03/10 12:14:02;;;;;;;12.02;7.18;;;;;;;;;;5022379;28;20055;-73
2021/03/10 12:16:28;;;;;;;11.15;7.28;;;;;;;;;;5024951;28;20029;-74
2021/03/10 12:18:53;;;;;;;13.77;7.60;;;;;;;;;;5024493;28;20026;-74
2021/03/10 12:21:18;;;;;;;14.10;7.72;;;;;;;;;;5024911;28;20033;-74
2021/03/10 12:23:43;;;;;;;18.05;8.00;;;;;;;;;;5025433;28;20021;-73
2021/03/10 12:26:09;;;;;;;17.30;7.32;;;;;;;;;;5022179;28;20044;-74
2021/03/10 12:28:34;;;;;;;16.37;7.73;;;;;;;;;;5016721;28;20480;-74
2021/03/10 12:30:59;;;;;;;14.75;7.32;;;;;;;;;;5019816;28;20781;-74
2021/03/10 12:33:25;;;;;;;14.23;7.80;;;;;;;;;;5022927;28;20153;-74
2021/03/10 12:35:50;;;;;;;14.25;7.18;;;;;;;;;;5014892;28;20304;-74
2021/03/10 12:38:15;;;;;;;12.52;6.85;;;;;;;;;;5022533;28;20017;-74
2021/03/10 12:40:40;;;;;;;13.13;8.53;;;;;;;;;;5016913;28;20025;-74
2021/03/10 12:43:06;;;;;;;12.30;6.90;;;;;;;;;;5016959;28;20014;-73
2021/03/10 12:45:31;;;;;;;12.73;6.60;;;;;;;;;;5016254;28;20431;-74
2021/03/10 12:47:56;;;;;;;14.88;7.00;;;;;;;;;;5037714;28;20559;-74
2021/03/10 12:50:22;;;;;;;10.40;7.00;;;;;;;;;;5010108;28;20025;-74
2021/03/10 12:52:47;;;;;;;12.23;6.65;;;;;;;;;;5018077;28;20272;-74
2021/03/10 12:55:13;;;;;;;10.67;6.13;;;;;;;;;;5008669;28;20010;-73
2021/03/10 12:57:38;;;;;;;10.55;6.63;;;;;;;;;;5017879;28;20397;-73
2021/03/10 13:00:04;;;;;;;11.15;6.45;;;;;;;;;;5001902;28;20112;-73
2021/03/10 13:02:29;;;;;;;11.55;6.95;;;;;;;;;;5019306;28;20033;-74
2021/03/10 13:04:55;;;;;;;12.40;6.88;;;;;;;;;;5016153;28;20029;-73
2021/03/10 13:07:20;;;;;;;11.27;6.38;;;;;;;;;;5023350;28;20014;-73
2021/03/10 13:09:46;;;;;;;9.40;5.78;;;;;;;;;;5017263;28;20156;-72
2021/03/10 13:12:11;;;;;;;11.10;6.30;;;;;;;;;;5021565;28;20332;-71
2021/03/10 13:14:36;;;;;;;10.88;6.45;;;;;;;;;;5027022;28;20022;-72
2021/03/10 13:17:02;;;;;;;12.40;6.65;;;;;;;;;;5049723;28;20052;-72
2021/03/10 13:19:28;;;;;;;9.75;5.80;;;;;;;;;;5036170;28;20049;-72
2021/03/10 13:21:54;;;;;;;14.20;6.32;;;;;;;;;;5038110;28;20494;-75
2021/03/10 13:24:19;;;;;;;10.30;5.97;;;;;;;;;;5030324;28;20036;-73
2021/03/10 13:26:44;;;;;;;10.07;6.03;;;;;;;;;;5023236;28;20022;-73
2021/03/10 13:29:09;;;;;;;10.50;6.20;;;;;;;;;;5029995;28;20505;-74
2021/03/10 13:31:35;;;;;;;8.50;5.40;;;;;;;;;;5015606;28;20021;-72
2021/03/10 13:34:00;;;;;;;10.73;6.57;;;;;;;;;;5030275;28;20249;-73
2021/03/10 13:36:26;;;;;;;8.40;5.55;;;;;;;;;;5025021;28;20288;-74
2021/03/10 13:38:51;;;;;;;8.82;5.32;;;;;;;;;;5032201;28;20029;-73
2021/03/10 13:41:16;;;;;;;9.17;5.50;;;;;;;;;;5031660;28;20059;-73
2021/03/10 13:43:42;;;;;;;9.20;5.80;;;;;;;;;;5031563;28;20278;-73
2021/03/10 13:46:07;;;;;;;8.38;5.45;;;;;;;;;;5030485;28;20014;-72
2021/03/10 13:48:32;;;;;;;9.73;5.37;;;;;;;;;;5026956;28;20083;-73
2021/03/10 13:50:58;;;;;;;9.65;5.28;;;;;;;;;;5011321;28;20272;-73
2021/03/10 13:53:23;;;;;;;7.75;5.30;;;;;;;;;;5009940;28;20026;-72
2021/03/10 13:55:48;;;;;;;7.90;4.95;;;;;;;;;;5009976;28;20030;-72
2021/03/10 13:58:14;;;;;;;10.25;5.32;;;;;;;;;;5011369;28;20045;-72
2021/03/10 14:00:39;;;;;;;8.63;5.50;;;;;;;;;;5017482;28;20033;-73
2021/03/10 14:03:04;;;;;;;7.88;5.20;;;;;;;;;;5023580;28;20079;-74
2021/03/10 14:05:30;;;;;;;8.23;5.00;;;;;;;;;;5016910;28;20036;-79
2021/03/10 14:07:55;;;;;;;8.30;4.90;;;;;;;;;;5028259;28;20060;-75
2021/03/10 14:10:21;;;;;;;7.90;5.78;;;;;;;;;;5023958;28;20021;-78
2021/03/10 14:12:46;;;;;;;7.13;5.15;;;;;;;;;;5021856;28;20029;-71
2021/03/10 14:15:11;;;;;;;8.15;4.75;;;;;;;;;;5025215;28;20026;-71
2021/03/10 14:17:37;;;;;;;7.35;4.70;;;;;;;;;;5038308;28;20033;-74
2021/03/10 14:20:03;;;;;;;8.13;4.53;;;;;;;;;;5013851;28;20018;-75
2021/03/10 14:22:28;;;;;;;6.70;4.50;;;;;;;;;;5013582;28;20030;-73
2021/03/10 14:24:54;;;;;;;7.53;4.20;;;;;;;;;;5035726;28;20025;-74
2021/03/10 14:27:19;;;;;;;6.70;4.30;;;;;;;;;;5017586;28;20332;-73
2021/03/10 14:29:44;;;;;;;6.23;4.67;;;;;;;;;;5026714;28;20405;-74
2021/03/10 14:32:10;;;;;;;7.43;4.40;;;;;;;;;;5025154;28;20361;-74